ADDS METAR Data INFO
IDs: Format: Raw Decoded Include TAF

Data at: 0510 UTC 21 Feb 2018

KBQK 201515Z AUTO 12010KT 10SM CLR 24/18 A3042 RMK AO2
KBQK 201455Z AUTO 14006KT 10SM CLR 23/19 A3042 RMK AO2
KBQK 201435Z AUTO 15006KT 10SM SCT021 21/19 A3042 RMK AO2
KBQK 201415Z AUTO 11004KT 10SM CLR 20/18 A3042 RMK AO2
KBQK 201355Z AUTO 10004KT 10SM CLR 19/18 A3041 RMK AO2
KBQK 201335Z AUTO 00000KT 10SM CLR 18/17 A3041 RMK AO2
KBQK 201315Z AUTO 00000KT 10SM CLR 17/16 A3040 RMK AO2
KBQK 201255Z AUTO 00000KT 4SM BR BKN005 15/14 A3040 RMK AO2
KBQK 201235Z AUTO 00000KT 1/2SM FG OVC005 14/13 A3039 RMK AO2
KBQK 201215Z AUTO 00000KT 1/4SM FG OVC005 14/13 A3039 RMK AO2
KBQK 201155Z AUTO 00000KT 1/4SM FG OVC003 14/13 A3039 RMK AO2
KBQK 201135Z AUTO 00000KT 1/4SM FG OVC003 14/13 A3038 RMK AO2
KBQK 201115Z AUTO 00000KT 1/4SM FG OVC003 15/13 A3037 RMK AO2
KBQK 201055Z AUTO 00000KT 1/4SM FG OVC003 15/13 A3037 RMK AO2
KBQK 201035Z AUTO 00000KT 1/4SM FG OVC005 15/13 A3036 RMK AO2
KBQK 201015Z AUTO 00000KT 1/4SM FG OVC007 16/15 A3036 RMK AO2
KBQK 200955Z AUTO 09003KT 1/4SM FG VV002 15/14 A3035 RMK AO2
KBQK 200935Z AUTO 12003KT 10SM CLR 16/15 A3035 RMK AO2
KBQK 200915Z AUTO 11004KT 4SM BR CLR 16/15 A3034 RMK AO2
KBQK 200855Z AUTO 09003KT 2 1/2SM BR CLR 16/15 A3034 RMK AO2 VIS 1 1/4V5
KBQK 200835Z AUTO 00000KT 1SM BR BKN023 15/14 A3034 RMK AO2 VIS 1/2V2 1/2
KBQK 200815Z AUTO 00000KT 1/4SM FG OVC023 15/14 A3034 RMK AO2
KBQK 200755Z AUTO 00000KT 1/2SM FG VV005 16/15 A3035 RMK AO2
KBQK 200735Z AUTO 00000KT 3/4SM BR VV005 16/14 A3035 RMK AO2
KBQK 200715Z AUTO 00000KT 5SM BR CLR 16/15 A3035 RMK AO2
KBQK 200655Z AUTO 13004KT 10SM CLR 18/17 A3036 RMK AO2
KBQK 200635Z AUTO 11003KT 10SM CLR 16/15 A3036 RMK AO2
KBQK 200615Z AUTO 00000KT 7SM CLR 16/15 A3036 RMK AO2
KBQK 200555Z AUTO 12003KT 3SM BR CLR 16/15 A3036 RMK AO2
KBQK 200535Z AUTO 12004KT 10SM CLR 18/16 A3036 RMK AO2
KBQK 200515Z AUTO 12004KT 10SM CLR 18/16 A3036 RMK AO2
KBQK 200455Z AUTO 12003KT 10SM CLR 18/16 A3036 RMK AO2
KBQK 200435Z AUTO 11003KT 10SM CLR 17/16 A3036 RMK AO2
KBQK 200415Z AUTO 11003KT 10SM CLR 17/16 A3036 RMK AO2
KBQK 200355Z AUTO 00000KT 1/4SM FG OVC005 16/15 A3036 RMK AO2
KBQK 200335Z AUTO 00000KT 1/2SM FG BKN005 BKN026 16/15 A3036 RMK AO2
KBQK 200315Z AUTO 07003KT 3/4SM BR VV005 16/15 A3036 RMK AO2
KBQK 200255Z AUTO 07003KT 5SM BR CLR 17/15 A3036 RMK AO2
KBQK 200235Z AUTO 06004KT 10SM SCT027 SCT036 17/16 A3036 RMK AO2
KBQK 200215Z AUTO 06003KT 10SM SCT027 SCT034 SCT044 17/16 A3036 RMK AO2
KBQK 200155Z AUTO 07003KT 7SM SCT030 BKN049 16/15 A3035 RMK AO2
KBQK 200135Z AUTO 00000KT 7SM SCT026 SCT031 SCT039 17/15 A3035 RMK AO2
KBQK 200115Z AUTO 07004KT 10SM SCT030 SCT039 BKN048 17/16 A3035 RMK AO2
KBQK 200055Z AUTO 06003KT 7SM SCT032 SCT037 17/15 A3034 RMK AO2
KBQK 200035Z AUTO 07003KT 10SM CLR 17/15 A3034 RMK AO2
KBQK 200015Z AUTO 08004KT 10SM SCT029 SCT035 18/16 A3034 RMK AO2
KBQK 192355Z AUTO 08006KT 10SM SCT029 SCT035 19/17 A3033 RMK AO2
KBQK 192335Z AUTO 07006KT 10SM CLR 20/17 A3033 RMK AO2
KBQK 192315Z AUTO 09006KT 10SM CLR 21/17 A3033 RMK AO2
KBQK 192255Z AUTO 11005KT 10SM CLR 22/17 A3032 RMK AO2
KBQK 192235Z AUTO 13005KT 10SM CLR 23/17 A3032 RMK AO2
KBQK 192215Z AUTO 12008KT 10SM SCT024 SCT030 23/17 A3032 RMK AO2
KBQK 192155Z AUTO 14007KT 10SM BKN024 BKN030 24/17 A3031 RMK AO2
KBQK 192135Z AUTO 14005KT 10SM SCT024 24/17 A3031 RMK AO2
KBQK 192115Z AUTO 16006KT 10SM SCT024 24/17 A3032 RMK AO2
KBQK 192055Z AUTO 15007KT 10SM SCT024 SCT036 24/17 A3032 RMK AO2
KBQK 192035Z AUTO 16008KT 10SM BKN022 BKN033 25/17 A3032 RMK AO2
KBQK 192015Z AUTO 14005KT 10SM SCT024 24/17 A3032 RMK AO2
KBQK 191955Z AUTO 00000KT 10SM BKN022 BKN029 24/17 A3032 RMK AO2
KBQK 191935Z AUTO 10006G14KT 10SM SCT022 BKN027 24/17 A3033 RMK AO2
KBQK 191915Z AUTO 09007KT 10SM SCT025 24/18 A3033 RMK AO2
KBQK 191855Z AUTO 09005KT 10SM SCT027 24/17 A3034 RMK AO2
KBQK 191835Z AUTO 08007KT 10SM SCT025 BKN032 24/17 A3035 RMK AO2
KBQK 191815Z AUTO 09008KT 10SM SCT020 SCT027 SCT050 25/18 A3035 RMK AO2
KBQK 191755Z AUTO 09004KT 10SM SCT018 SCT029 BKN034 24/18 A3036 RMK AO2
KBQK 191735Z AUTO 00000KT 10SM SCT018 SCT031 23/17 A3037 RMK AO2
KBQK 191715Z AUTO 10003KT 10SM CLR 23/18 A3038 RMK AO2